Time;durP1;ratioP1;P1;durP2;ratioP2;P2;SDS_P1;SDS_P2;PMS_P1;PMS_P2;Temp;Humidity;BMP_temperature;BMP_pressure;BME280_temperature;BME280_humidity;BME280_pressure;Samples;Min_cycle;Max_cycle;Signal;HPM_P1;HPM_P2
2023/05/01 00:00:15;;;;;;;;;;;7.80;99.90;;;;;;5053537;28;20408;-70
2023/05/01 00:02:40;;;;;;;;;;;7.90;99.90;;;;;;5059284;28;19970;-69
2023/05/01 00:05:07;;;;;;;;;;;7.90;99.90;;;;;;5071447;28;20441;-70
2023/05/01 00:07:32;;;;;;;;;;;7.90;99.90;;;;;;5053722;28;19971;-70
2023/05/01 00:09:58;;;;;;;;;;;7.90;99.90;;;;;;5053260;28;19975;-70
2023/05/01 00:12:24;;;;;;;;;;;7.90;99.90;;;;;;5042029;28;19968;-70
2023/05/01 00:14:50;;;;;;;;;;;7.80;99.90;;;;;;5052730;28;20291;-70
2023/05/01 00:17:15;;;;;;;;;;;7.80;99.90;;;;;;5072031;28;19925;-70
2023/05/01 00:19:41;;;;;;;;;;;7.80;99.90;;;;;;5072360;28;20324;-70
2023/05/01 00:22:07;;;;;;;;;;;7.90;99.90;;;;;;5070954;28;19948;-70
2023/05/01 00:24:32;;;;;;;;;;;7.80;99.90;;;;;;5070178;28;19925;-70
2023/05/01 00:26:58;;;;;;;;;;;7.80;99.90;;;;;;5069443;28;19924;-70
2023/05/01 00:29:23;;;;;;;;;;;7.90;99.90;;;;;;5059447;28;20019;-70
2023/05/01 00:31:49;;;;;;;;;;;7.80;99.90;;;;;;5056216;28;19979;-69
2023/05/01 00:34:14;;;;;;;;;;;7.80;99.90;;;;;;5072282;28;19986;-69
2023/05/01 00:36:40;;;;;;;;;;;7.70;99.90;;;;;;5071762;28;20019;-70
2023/05/01 00:39:08;;;;;;;;;;;7.70;99.90;;;;;;5076153;28;19986;-70
2023/05/01 00:41:34;;;;;;;;;;;7.70;99.90;;;;;;5070856;28;20011;-69
2023/05/01 00:44:00;;;;;;;;;;;7.70;99.90;;;;;;5056640;28;19987;-70
2023/05/01 00:46:28;;;;;;;;;;;7.70;99.90;;;;;;5056625;28;19932;-70
2023/05/01 00:48:54;;;;;;;;;;;7.70;99.90;;;;;;5058064;28;19924;-70
2023/05/01 00:51:20;;;;;;;;;;;7.70;99.90;;;;;;5075331;28;19935;-70
2023/05/01 00:53:45;;;;;;;;;;;7.70;99.90;;;;;;5074031;28;19928;-70
2023/05/01 00:56:11;;;;;;;;;;;7.70;99.90;;;;;;5075220;28;19977;-70
2023/05/01 00:58:37;;;;;;;;;;;7.60;99.90;;;;;;5070754;28;19956;-70
2023/05/01 01:01:04;;;;;;;;;;;7.60;99.90;;;;;;5039992;28;19925;-71
2023/05/01 01:03:30;;;;;;;;;;;7.60;99.90;;;;;;5075411;28;19999;-70
2023/05/01 01:06:00;;;;;;;;;;;7.60;99.90;;;;;;5068369;28;19978;-70
2023/05/01 01:08:32;;;;;;;;;;;7.60;99.90;;;;;;5056149;28;19925;-70
2023/05/01 01:11:02;;;;;;;;;;;7.60;99.90;;;;;;5064869;28;19924;-70
2023/05/01 01:13:51;;;;;;;;;;;7.50;99.90;;;;;;5058071;28;20224;-70
2023/05/01 01:16:20;;;;;;;;;;;7.50;99.90;;;;;;5058247;28;19925;-70
2023/05/01 01:18:55;;;;;;;;;;;7.60;99.90;;;;;;5055940;28;19976;-70
2023/05/01 01:21:30;;;;;;;;;;;7.50;99.90;;;;;;5073180;28;19921;-70
2023/05/01 01:24:11;;;;;;;;;;;7.50;99.90;;;;;;5074914;28;19929;-70
2023/05/01 01:26:50;;;;;;;;;;;7.50;99.90;;;;;;5065329;28;19920;-70
2023/05/01 01:29:15;;;;;;;;;;;7.50;99.90;;;;;;5068098;28;19978;-70
2023/05/01 01:31:56;;;;;;;;;;;7.50;99.90;;;;;;5067642;28;19928;-70
2023/05/01 01:34:26;;;;;;;;;;;7.50;99.90;;;;;;5055184;28;19925;-70
2023/05/01 01:36:58;;;;;;;;;;;7.50;99.90;;;;;;5067957;28;19924;-70
2023/05/01 01:39:30;;;;;;;;;;;7.50;99.90;;;;;;5074663;28;20337;-70
2023/05/01 01:41:57;;;;;;;;;;;7.50;99.90;;;;;;5075434;28;19971;-70
2023/05/01 01:44:49;;;;;;;;;;;7.40;99.90;;;;;;5068164;28;20118;-70
2023/05/01 01:47:15;;;;;;;;;;;7.40;99.90;;;;;;5069015;28;19925;-70
2023/05/01 01:49:45;;;;;;;;;;;7.40;99.90;;;;;;5070955;28;19924;-70
2023/05/01 01:52:13;;;;;;;;;;;7.40;99.90;;;;;;5075223;28;19931;-70
2023/05/01 01:54:41;;;;;;;;;;;7.40;99.90;;;;;;5070688;28;19924;-70
2023/05/01 01:57:08;;;;;;;;;;;7.40;99.90;;;;;;5056969;28;19932;-70
2023/05/01 01:59:33;;;;;;;;;;;7.40;99.90;;;;;;5057014;28;19925;-70
2023/05/01 02:02:00;;;;;;;;;;;7.40;99.90;;;;;;5056805;28;19924;-70
2023/05/01 02:04:27;;;;;;;;;;;7.40;99.90;;;;;;5073627;28;19924;-70
2023/05/01 02:06:54;;;;;;;;;;;7.40;99.90;;;;;;5075133;28;20076;-70
2023/05/01 02:09:21;;;;;;;;;;;7.40;99.90;;;;;;5074547;28;20271;-70
2023/05/01 02:11:48;;;;;;;;;;;7.30;99.90;;;;;;5073877;28;19924;-70
2023/05/01 02:14:14;;;;;;;;;;;7.30;99.90;;;;;;5075004;28;19924;-70
2023/05/01 02:16:40;;;;;;;;;;;7.30;99.90;;;;;;5067987;28;19931;-70
2023/05/01 02:19:06;;;;;;;;;;;7.30;99.90;;;;;;5061635;28;20385;-70
2023/05/01 02:21:34;;;;;;;;;;;7.30;99.90;;;;;;5066192;28;19931;-70
2023/05/01 02:24:00;;;;;;;;;;;7.30;99.90;;;;;;5054807;28;20013;-70
2023/05/01 02:26:29;;;;;;;;;;;7.50;99.90;;;;;;5072049;28;20346;-70
2023/05/01 02:28:54;;;;;;;;;;;7.30;99.90;;;;;;5056295;28;19925;-70
2023/05/01 02:31:21;;;;;;;;;;;7.30;99.90;;;;;;5068941;28;19925;-69
2023/05/01 02:33:47;;;;;;;;;;;7.20;99.90;;;;;;5062031;28;19924;-70
2023/05/01 02:36:12;;;;;;;;;;;7.20;99.90;;;;;;5074431;28;19924;-70
2023/05/01 02:38:38;;;;;;;;;;;7.20;99.90;;;;;;5073413;28;19993;-70
2023/05/01 02:41:05;;;;;;;;;;;7.50;99.90;;;;;;5059511;28;20275;-70
2023/05/01 02:43:32;;;;;;;;;;;7.10;99.90;;;;;;5074128;28;19947;-70
2023/05/01 02:45:58;;;;;;;;;;;7.10;99.90;;;;;;5072749;28;19949;-70
2023/05/01 02:48:25;;;;;;;;;;;7.10;99.90;;;;;;5071968;28;20010;-70
2023/05/01 02:50:52;;;;;;;;;;;7.10;99.90;;;;;;5068636;28;19951;-70
2023/05/01 02:53:19;;;;;;;;;;;7.10;99.90;;;;;;5053765;28;20294;-70
2023/05/01 02:55:44;;;;;;;;;;;7.00;99.90;;;;;;5054563;28;19925;-70
2023/05/01 02:58:17;;;;;;;;;;;7.00;99.90;;;;;;5064633;28;19981;-69
2023/05/01 03:00:43;;;;;;;;;;;7.00;99.90;;;;;;5053998;28;19936;-70
2023/05/01 03:03:09;;;;;;;;;;;6.90;99.90;;;;;;5053846;28;19924;-70
2023/05/01 03:05:35;;;;;;;;;;;7.00;99.90;;;;;;5061104;28;19924;-70
2023/05/01 03:08:00;;;;;;;;;;;6.90;99.90;;;;;;5065776;28;19924;-70
2023/05/01 03:10:26;;;;;;;;;;;6.90;99.90;;;;;;5068828;28;20362;-70
2023/05/01 03:12:51;;;;;;;;;;;6.80;99.90;;;;;;5072533;28;19978;-70
2023/05/01 03:15:17;;;;;;;;;;;6.80;99.90;;;;;;5072568;28;19928;-70
2023/05/01 03:17:43;;;;;;;;;;;6.80;99.90;;;;;;5057420;28;19929;-70
2023/05/01 03:20:09;;;;;;;;;;;6.80;99.90;;;;;;5052987;28;20263;-70
2023/05/01 03:22:35;;;;;;;;;;;6.80;99.90;;;;;;5071496;28;19942;-70
2023/05/01 03:25:01;;;;;;;;;;;6.70;99.90;;;;;;5064772;28;20332;-70
2023/05/01 03:27:26;;;;;;;;;;;6.70;99.90;;;;;;5072379;28;19977;-70
2023/05/01 03:29:52;;;;;;;;;;;6.70;99.90;;;;;;5054428;28;19936;-70
2023/05/01 03:32:17;;;;;;;;;;;6.60;99.90;;;;;;5052614;28;19978;-70
2023/05/01 03:34:44;;;;;;;;;;;6.70;99.90;;;;;;5072770;28;19924;-70
2023/05/01 03:37:10;;;;;;;;;;;6.60;99.90;;;;;;5053942;28;20396;-70
2023/05/01 03:39:36;;;;;;;;;;;6.60;99.90;;;;;;5055016;28;19928;-70
2023/05/01 03:42:01;;;;;;;;;;;6.60;99.90;;;;;;5072404;28;19951;-70
2023/05/01 03:44:27;;;;;;;;;;;6.60;99.90;;;;;;5072521;28;19930;-69
2023/05/01 03:46:53;;;;;;;;;;;6.60;99.90;;;;;;5072941;28;19925;-70
2023/05/01 03:49:18;;;;;;;;;;;6.50;99.90;;;;;;5055179;28;19977;-70
2023/05/01 03:51:44;;;;;;;;;;;6.50;99.90;;;;;;5067633;28;19924;-70
2023/05/01 03:54:09;;;;;;;;;;;6.50;99.90;;;;;;5072085;28;19928;-70
2023/05/01 03:56:35;;;;;;;;;;;6.50;99.90;;;;;;5070498;28;19931;-70
2023/05/01 03:59:01;;;;;;;;;;;6.40;99.90;;;;;;5072658;28;19924;-70
2023/05/01 04:01:26;;;;;;;;;;;6.40;99.90;;;;;;5072784;28;20397;-70
2023/05/01 04:03:52;;;;;;;;;;;6.50;99.90;;;;;;5071945;28;19925;-70
2023/05/01 04:06:18;;;;;;;;;;;6.50;99.90;;;;;;5072901;28;19982;-70
2023/05/01 04:08:44;;;;;;;;;;;6.40;99.90;;;;;;5072720;28;20397;-70
2023/05/01 04:11:10;;;;;;;;;;;6.40;99.90;;;;;;5060878;28;19931;-70
2023/05/01 04:13:35;;;;;;;;;;;6.40;99.90;;;;;;5066710;28;20055;-70
2023/05/01 04:16:01;;;;;;;;;;;6.40;99.90;;;;;;5053354;28;20274;-70
2023/05/01 04:18:27;;;;;;;;;;;6.40;99.90;;;;;;5052711;28;19932;-70
2023/05/01 04:20:52;;;;;;;;;;;6.40;99.90;;;;;;5055805;28;19925;-70
2023/05/01 04:23:19;;;;;;;;;;;6.50;99.90;;;;;;5052964;28;20293;-70
2023/05/01 04:25:46;;;;;;;;;;;6.40;99.90;;;;;;5060972;28;19970;-70
2023/05/01 04:28:12;;;;;;;;;;;6.50;99.90;;;;;;5071573;28;19932;-70
2023/05/01 04:30:37;;;;;;;;;;;6.50;99.90;;;;;;5072435;28;19925;-70
2023/05/01 04:33:10;;;;;;;;;;;6.50;99.90;;;;;;5072170;28;20385;-70
2023/05/01 04:35:39;;;;;;;;;;;6.50;99.90;;;;;;5072171;28;19925;-70
2023/05/01 04:38:04;;;;;;;;;;;6.50;99.90;;;;;;5072800;28;19925;-71
2023/05/01 04:40:30;;;;;;;;;;;6.60;99.90;;;;;;5072423;28;20027;-70
2023/05/01 04:42:56;;;;;;;;;;;6.70;99.90;;;;;;5071780;28;19967;-70
2023/05/01 04:45:21;;;;;;;;;;;6.60;99.90;;;;;;5072560;28;19968;-70
2023/05/01 04:47:47;;;;;;;;;;;6.70;99.90;;;;;;5073482;28;19924;-70
2023/05/01 04:50:13;;;;;;;;;;;6.70;99.90;;;;;;5072043;28;19931;-68
2023/05/01 04:52:38;;;;;;;;;;;6.70;99.90;;;;;;5073420;28;19932;-70
2023/05/01 04:55:04;;;;;;;;;;;6.80;99.90;;;;;;5071901;28;19925;-70
2023/05/01 04:57:30;;;;;;;;;;;6.80;99.90;;;;;;5071010;28;19929;-70
2023/05/01 04:59:55;;;;;;;;;;;6.90;99.90;;;;;;5071070;28;19924;-70
2023/05/01 05:02:20;;;;;;;;;;;6.90;99.90;;;;;;5071534;28;19925;-70
2023/05/01 05:04:46;;;;;;;;;;;7.10;99.90;;;;;;5072095;28;20381;-69
2023/05/01 05:07:12;;;;;;;;;;;7.00;99.90;;;;;;5053578;28;19929;-68
2023/05/01 05:09:37;;;;;;;;;;;7.10;99.90;;;;;;5062089;28;19925;-69
2023/05/01 05:12:03;;;;;;;;;;;7.20;99.90;;;;;;5071987;28;19935;-69
2023/05/01 05:14:29;;;;;;;;;;;7.30;99.90;;;;;;5054776;28;20003;-69
2023/05/01 05:16:55;;;;;;;;;;;7.40;99.90;;;;;;5072357;28;19925;-69
2023/05/01 05:19:20;;;;;;;;;;;7.40;99.90;;;;;;5071757;28;19924;-69
2023/05/01 05:21:46;;;;;;;;;;;7.50;99.90;;;;;;5051382;28;19925;-69
2023/05/01 05:24:12;;;;;;;;;;;7.60;99.90;;;;;;5070170;28;19931;-69
2023/05/01 05:26:38;;;;;;;;;;;7.70;99.90;;;;;;5076895;28;19971;-69
2023/05/01 05:29:03;;;;;;;;;;;7.70;99.90;;;;;;5060324;28;19924;-69
2023/05/01 05:31:29;;;;;;;;;;;7.80;99.90;;;;;;5077680;28;19925;-69
2023/05/01 05:33:54;;;;;;;;;;;7.90;99.90;;;;;;5058360;28;19934;-69
2023/05/01 05:36:20;;;;;;;;;;;8.00;99.90;;;;;;5058909;28;19939;-69
2023/05/01 05:38:46;;;;;;;;;;;8.10;99.90;;;;;;5059196;28;20378;-69
2023/05/01 05:41:11;;;;;;;;;;;8.30;99.90;;;;;;5069989;28;19929;-69
2023/05/01 05:43:37;;;;;;;;;;;8.50;99.90;;;;;;5074467;28;19970;-69
2023/05/01 05:46:02;;;;;;;;;;;8.50;99.90;;;;;;5075308;28;19931;-69
2023/05/01 05:48:28;;;;;;;;;;;8.60;99.90;;;;;;5074893;28;19925;-70
2023/05/01 05:50:53;;;;;;;;;;;8.60;99.90;;;;;;5060697;28;19924;-70
2023/05/01 05:53:19;;;;;;;;;;;8.70;99.90;;;;;;5055178;28;19931;-69
2023/05/01 05:55:48;;;;;;;;;;;8.70;99.90;;;;;;5062133;28;20297;-69
2023/05/01 05:58:18;;;;;;;;;;;8.70;99.90;;;;;;5076976;28;19947;-70
2023/05/01 06:00:45;;;;;;;;;;;8.70;99.90;;;;;;5045920;28;19928;-70
2023/05/01 06:03:10;;;;;;;;;;;8.70;99.90;;;;;;5079658;28;19924;-69
2023/05/01 06:05:36;;;;;;;;;;;8.70;99.90;;;;;;5079345;28;20011;-69
2023/05/01 06:08:01;;;;;;;;;;;8.70;99.90;;;;;;5077097;28;19930;-69
2023/05/01 06:10:27;;;;;;;;;;;8.70;99.90;;;;;;5076468;28;19924;-70
2023/05/01 06:12:52;;;;;;;;;;;8.80;99.90;;;;;;5058529;28;19924;-69
2023/05/01 06:15:18;;;;;;;;;;;8.90;99.90;;;;;;5055394;28;20446;-69
2023/05/01 06:17:44;;;;;;;;;;;9.00;99.90;;;;;;5062069;28;19925;-69
2023/05/01 06:20:10;;;;;;;;;;;9.10;99.90;;;;;;5073566;28;19924;-69
2023/05/01 06:22:35;;;;;;;;;;;9.30;99.90;;;;;;5067528;28;20271;-69
2023/05/01 06:25:01;;;;;;;;;;;9.40;99.90;;;;;;5055722;28;19937;-69
2023/05/01 06:27:27;;;;;;;;;;;9.60;99.90;;;;;;5074875;28;19928;-69
2023/05/01 06:29:52;;;;;;;;;;;9.90;99.90;;;;;;5036843;28;19994;-69
2023/05/01 06:32:18;;;;;;;;;;;10.70;99.90;;;;;;5054851;28;19971;-69
2023/05/01 06:34:43;;;;;;;;;;;10.30;99.90;;;;;;5071729;28;19924;-70
2023/05/01 06:37:09;;;;;;;;;;;10.50;99.90;;;;;;5073020;28;19955;-69
2023/05/01 06:39:34;;;;;;;;;;;10.70;99.90;;;;;;5065153;28;19971;-69
2023/05/01 06:42:02;;;;;;;;;;;10.90;99.90;;;;;;5067863;28;19928;-69
2023/05/01 06:44:27;;;;;;;;;;;10.90;99.90;;;;;;5074092;28;19942;-69
2023/05/01 06:46:53;;;;;;;;;;;11.00;99.90;;;;;;5073022;28;20347;-69
2023/05/01 06:49:18;;;;;;;;;;;11.00;99.90;;;;;;5058456;28;19978;-69
2023/05/01 06:51:44;;;;;;;;;;;11.00;99.90;;;;;;5054087;28;19929;-69
2023/05/01 06:54:09;;;;;;;;;;;11.80;99.90;;;;;;5073299;28;20011;-69
2023/05/01 06:56:35;;;;;;;;;;;11.00;99.90;;;;;;5064142;28;19924;-69
2023/05/01 06:59:00;;;;;;;;;;;11.30;99.90;;;;;;5053905;28;19924;-70
2023/05/01 07:01:26;;;;;;;;;;;11.40;99.90;;;;;;5035818;28;19932;-69
2023/05/01 07:03:52;;;;;;;;;;;11.50;99.90;;;;;;5036250;28;19924;-70
2023/05/01 07:06:17;;;;;;;;;;;11.60;99.90;;;;;;5053766;28;20016;-69
2023/05/01 07:08:43;;;;;;;;;;;11.60;99.90;;;;;;5061795;28;19929;-69
2023/05/01 07:11:08;;;;;;;;;;;11.70;99.90;;;;;;5072505;28;19932;-70
2023/05/01 07:13:34;;;;;;;;;;;11.80;99.90;;;;;;5055450;28;20350;-69
2023/05/01 07:16:00;;;;;;;;;;;11.80;99.90;;;;;;5051350;28;20441;-69
2023/05/01 07:18:25;;;;;;;;;;;11.80;99.90;;;;;;5073685;28;19931;-69
2023/05/01 07:20:51;;;;;;;;;;;12.00;99.90;;;;;;5071766;28;20003;-69
2023/05/01 07:23:17;;;;;;;;;;;12.10;99.90;;;;;;5072762;28;20392;-69
2023/05/01 07:25:44;;;;;;;;;;;12.10;99.90;;;;;;5071634;28;19931;-69
2023/05/01 07:28:09;;;;;;;;;;;12.20;99.90;;;;;;5055831;28;19925;-69
2023/05/01 07:30:36;;;;;;;;;;;12.30;99.90;;;;;;5035612;28;19925;-69
2023/05/01 07:33:01;;;;;;;;;;;12.30;99.90;;;;;;5035766;28;19925;-69
2023/05/01 07:35:27;;;;;;;;;;;12.50;99.90;;;;;;5060523;28;19950;-69
2023/05/01 07:37:53;;;;;;;;;;;12.60;99.90;;;;;;5072675;28;19935;-69
2023/05/01 07:40:19;;;;;;;;;;;12.90;99.90;;;;;;5051333;28;19936;-69
2023/05/01 07:42:45;;;;;;;;;;;13.10;99.90;;;;;;5056581;28;19925;-69
2023/05/01 07:45:10;;;;;;;;;;;13.30;99.90;;;;;;5069659;28;20275;-69
2023/05/01 07:47:36;;;;;;;;;;;13.50;99.90;;;;;;5071912;28;20262;-70
2023/05/01 07:50:02;;;;;;;;;;;13.70;99.90;;;;;;5070030;28;19925;-70
2023/05/01 07:52:28;;;;;;;;;;;13.80;99.90;;;;;;5072583;28;19928;-70
2023/05/01 07:54:53;;;;;;;;;;;14.10;99.90;;;;;;5072805;28;19924;-70
2023/05/01 07:57:19;;;;;;;;;;;14.20;99.90;;;;;;5057191;28;20394;-70
2023/05/01 07:59:45;;;;;;;;;;;14.50;99.90;;;;;;5052645;28;19925;-69
2023/05/01 08:02:12;;;;;;;;;;;14.70;99.90;;;;;;5052780;28;19931;-69
2023/05/01 08:04:38;;;;;;;;;;;14.80;99.90;;;;;;5058681;28;19931;-70
2023/05/01 08:07:03;;;;;;;;;;;15.00;99.90;;;;;;5069613;28;19925;-70
2023/05/01 08:09:29;;;;;;;;;;;15.10;99.90;;;;;;5072813;28;19950;-70
2023/05/01 08:11:55;;;;;;;;;;;15.20;99.90;;;;;;5071628;28;19924;-70
2023/05/01 08:14:21;;;;;;;;;;;15.20;99.90;;;;;;5046298;28;19991;-70
2023/05/01 08:16:46;;;;;;;;;;;15.30;99.90;;;;;;5072072;28;19971;-70
2023/05/01 08:19:12;;;;;;;;;;;15.30;99.90;;;;;;5072159;28;20392;-70
2023/05/01 08:21:37;;;;;;;;;;;15.40;99.90;;;;;;5072515;28;19938;-70
2023/05/01 08:24:03;;;;;;;;;;;15.40;99.90;;;;;;5070380;28;20605;-70
2023/05/01 08:26:29;;;;;;;;;;;15.40;99.90;;;;;;5068620;28;20366;-70
2023/05/01 08:28:54;;;;;;;;;;;15.40;99.90;;;;;;5057342;28;19958;-70
2023/05/01 08:31:20;;;;;;;;;;;15.50;99.90;;;;;;5062287;28;19925;-70
2023/05/01 08:33:46;;;;;;;;;;;15.50;99.90;;;;;;5065675;28;19925;-70
2023/05/01 08:36:11;;;;;;;;;;;15.60;99.90;;;;;;5072268;28;20262;-70
2023/05/01 08:38:37;;;;;;;;;;;15.80;99.90;;;;;;5072537;28;19925;-70
2023/05/01 08:41:02;;;;;;;;;;;16.10;99.90;;;;;;5070787;28;19931;-70
2023/05/01 08:43:29;;;;;;;;;;;16.30;99.90;;;;;;5057248;28;19925;-70
2023/05/01 08:45:57;;;;;;;;;;;16.50;99.90;;;;;;5052370;28;20310;-70
2023/05/01 08:48:26;;;;;;;;;;;16.70;99.50;;;;;;5052183;28;19925;-70
2023/05/01 08:50:53;;;;;;;;;;;16.90;99.70;;;;;;5052473;28;19995;-70
2023/05/01 08:53:19;;;;;;;;;;;17.10;99.10;;;;;;5059698;28;20286;-70
2023/05/01 08:55:46;;;;;;;;;;;17.30;99.30;;;;;;5064333;28;20371;-70
2023/05/01 08:58:12;;;;;;;;;;;17.50;98.80;;;;;;5052967;28;19924;-71
2023/05/01 09:00:38;;;;;;;;;;;17.60;98.20;;;;;;5074969;28;20070;-70
2023/05/01 09:03:04;;;;;;;;;;;17.80;97.70;;;;;;5037879;28;19932;-70
2023/05/01 09:05:31;;;;;;;;;;;17.80;94.20;;;;;;5055733;28;19929;-71
2023/05/01 09:07:57;;;;;;;;;;;17.60;95.40;;;;;;5055762;28;19931;-70
2023/05/01 09:10:23;;;;;;;;;;;17.60;93.10;;;;;;5068366;28;20308;-70
2023/05/01 09:12:53;;;;;;;;;;;17.50;93.80;;;;;;5058146;28;19939;-70
2023/05/01 09:15:18;;;;;;;;;;;17.50;92.30;;;;;;5075319;28;20464;-70
2023/05/01 09:17:44;;;;;;;;;;;17.30;94.50;;;;;;5071912;28;19971;-70
2023/05/01 09:20:10;;;;;;;;;;;17.40;94.30;;;;;;5067603;28;19928;-70
2023/05/01 09:22:35;;;;;;;;;;;17.50;93.50;;;;;;5056762;28;20374;-70
2023/05/01 09:25:02;;;;;;;;;;;17.50;92.20;;;;;;5057068;28;20342;-70
2023/05/01 09:27:28;;;;;;;;;;;17.70;92.90;;;;;;5056652;28;20341;-70
2023/05/01 09:29:54;;;;;;;;;;;17.70;93.30;;;;;;5075804;28;19925;-71
2023/05/01 09:32:20;;;;;;;;;;;17.80;92.20;;;;;;5073661;28;19925;-71
2023/05/01 09:34:46;;;;;;;;;;;17.80;93.10;;;;;;5055645;28;19925;-71
2023/05/01 09:37:23;;;;;;;;;;;18.00;93.90;;;;;;5068231;28;19972;-71
2023/05/01 09:39:48;;;;;;;;;;;18.20;94.20;;;;;;5041326;28;20372;-70
2023/05/01 09:42:22;;;;;;;;;;;18.40;93.00;;;;;;5071964;28;20016;-70
2023/05/01 09:44:48;;;;;;;;;;;18.50;91.70;;;;;;5074346;28;19924;-70
2023/05/01 09:47:21;;;;;;;;;;;18.60;91.80;;;;;;5071082;28;19935;-70
2023/05/01 09:49:48;;;;;;;;;;;18.70;92.00;;;;;;5055466;28;19925;-70
2023/05/01 09:52:14;;;;;;;;;;;18.70;90.50;;;;;;5054979;28;19951;-70
2023/05/01 09:54:40;;;;;;;;;;;18.80;88.00;;;;;;5057727;28;20438;-71
2023/05/01 09:57:06;;;;;;;;;;;18.60;89.20;;;;;;5074711;28;20401;-68
2023/05/01 09:59:33;;;;;;;;;;;18.60;91.80;;;;;;5055469;28;19929;-69
2023/05/01 10:01:59;;;;;;;;;;;18.80;92.10;;;;;;5075021;28;19978;-69
2023/05/01 10:04:28;;;;;;;;;;;19.00;90.00;;;;;;5062254;28;19924;-69
2023/05/01 10:06:54;;;;;;;;;;;19.10;89.70;;;;;;5054520;28;20397;-69
2023/05/01 10:09:26;;;;;;;;;;;19.10;90.60;;;;;;5046890;28;19925;-68
2023/05/01 10:11:53;;;;;;;;;;;19.30;87.40;;;;;;5073547;28;19924;-68
2023/05/01 10:14:19;;;;;;;;;;;19.40;87.20;;;;;;5074734;28;19925;-68
2023/05/01 10:16:45;;;;;;;;;;;19.40;86.90;;;;;;5061190;28;20015;-68
2023/05/01 10:19:11;;;;;;;;;;;19.40;88.50;;;;;;5037147;28;19925;-69
2023/05/01 10:21:36;;;;;;;;;;;19.40;84.60;;;;;;5054907;28;20020;-69
2023/05/01 10:24:02;;;;;;;;;;;19.40;83.80;;;;;;5062450;28;19931;-69
2023/05/01 10:26:28;;;;;;;;;;;19.30;82.90;;;;;;5065673;28;19924;-69
2023/05/01 10:28:57;;;;;;;;;;;19.40;83.40;;;;;;5074526;28;20317;-69
2023/05/01 10:31:23;;;;;;;;;;;19.30;83.80;;;;;;5074236;28;19928;-69
2023/05/01 10:33:49;;;;;;;;;;;19.30;84.50;;;;;;5073550;28;19944;-69
2023/05/01 10:36:17;;;;;;;;;;;19.40;86.40;;;;;;5074158;28;19924;-69
2023/05/01 10:38:47;;;;;;;;;;;19.40;87.70;;;;;;5072664;28;20360;-69
2023/05/01 10:41:16;;;;;;;;;;;19.70;87.00;;;;;;5073272;28;19932;-69
2023/05/01 10:43:41;;;;;;;;;;;19.90;85.50;;;;;;5066942;28;19951;-69
2023/05/01 10:46:07;;;;;;;;;;;20.10;87.90;;;;;;5054095;28;19928;-69
2023/05/01 10:48:43;;;;;;;;;;;20.30;87.30;;;;;;5053928;28;20015;-69
2023/05/01 10:51:10;;;;;;;;;;;20.60;86.10;;;;;;5053605;28;20390;-69
2023/05/01 10:53:36;;;;;;;;;;;20.80;87.20;;;;;;5067248;28;19924;-69
2023/05/01 10:56:04;;;;;;;;;;;21.00;89.00;;;;;;5073420;28;19928;-69
2023/05/01 10:58:37;;;;;;;;;;;21.30;82.50;;;;;;5062679;28;19925;-69
2023/05/01 11:01:21;;;;;;;;;;;21.30;85.90;;;;;;5054026;28;20066;-69
2023/05/01 11:03:46;;;;;;;;;;;21.40;82.50;;;;;;5035526;28;19929;-69
2023/05/01 11:06:12;;;;;;;;;;;21.10;83.10;;;;;;5059009;28;20015;-69
2023/05/01 11:08:38;;;;;;;;;;;21.10;82.80;;;;;;5073735;28;19946;-69
2023/05/01 11:11:18;;;;;;;;;;;21.20;83.00;;;;;;5072314;28;20348;-69
2023/05/01 11:14:03;;;;;;;;;;;21.20;83.70;;;;;;5072041;28;20301;-69
2023/05/01 11:16:40;;;;;;;;;;;21.10;83.50;;;;;;5072675;28;19932;-69
2023/05/01 11:19:10;;;;;;;;;;;21.20;82.90;;;;;;5071841;28;19924;-69
2023/05/01 11:21:40;;;;;;;;;;;21.10;83.60;;;;;;5057081;28;20378;-70
2023/05/01 11:24:06;;;;;;;;;;;21.20;82.90;;;;;;5073104;28;19924;-69
2023/05/01 11:26:36;;;;;;;;;;;21.20;83.60;;;;;;5072526;28;19970;-69
2023/05/01 11:29:03;;;;;;;;;;;21.50;87.10;;;;;;5072589;28;19928;-69
2023/05/01 11:31:29;;;;;;;;;;;21.80;86.10;;;;;;5038963;28;19924;-70
2023/05/01 11:33:55;;;;;;;;;;;22.20;85.30;;;;;;5071977;28;19977;-69
2023/05/01 11:36:21;;;;;;;;;;;22.40;82.00;;;;;;5053890;28;19968;-69
2023/05/01 11:38:55;;;;;;;;;;;22.60;80.40;;;;;;5053183;28;19925;-70
2023/05/01 11:41:27;;;;;;;;;;;22.50;81.50;;;;;;5054695;28;19985;-69
2023/05/01 11:43:54;;;;;;;;;;;22.60;80.90;;;;;;5069145;28;19924;-69
2023/05/01 11:46:26;;;;;;;;;;;22.50;81.40;;;;;;5054624;28;19924;-69
2023/05/01 11:48:52;;;;;;;;;;;22.70;83.10;;;;;;5070544;28;19968;-68
2023/05/01 11:51:18;;;;;;;;;;;22.30;81.50;;;;;;5070385;28;19963;-70
2023/05/01 11:54:02;;;;;;;;;;;21.80;79.90;;;;;;5072871;28;20036;-69
2023/05/01 11:56:28;;;;;;;;;;;21.20;81.40;;;;;;5072773;28;19994;-69
2023/05/01 11:58:56;;;;;;;;;;;21.20;83.20;;;;;;5061732;28;20023;-69
2023/05/01 12:01:35;;;;;;;;;;;21.00;79.60;;;;;;5052635;28;20302;-70
2023/05/01 12:04:01;;;;;;;;;;;20.50;81.20;;;;;;5057787;28;19968;-70
2023/05/01 12:06:39;;;;;;;;;;;20.30;84.70;;;;;;5064245;28;19968;-70
2023/05/01 12:09:07;;;;;;;;;;;20.60;81.90;;;;;;5035078;28;20367;-69
2023/05/01 12:11:34;;;;;;;;;;;20.60;81.60;;;;;;5053313;28;19932;-70
2023/05/01 12:13:59;;;;;;;;;;;20.60;82.00;;;;;;5069671;28;19964;-70
2023/05/01 12:16:27;;;;;;;;;;;20.60;83.30;;;;;;5072421;28;20390;-69
2023/05/01 12:18:52;;;;;;;;;;;20.60;83.00;;;;;;5072722;28;19924;-69
2023/05/01 12:21:18;;;;;;;;;;;20.60;81.80;;;;;;5068809;28;19928;-69
2023/05/01 12:23:44;;;;;;;;;;;20.60;81.50;;;;;;5052675;28;19925;-70
2023/05/01 12:26:24;;;;;;;;;;;20.50;81.70;;;;;;5058123;28;20290;-70
2023/05/01 12:28:53;;;;;;;;;;;20.20;83.00;;;;;;5068899;28;19978;-70
2023/05/01 12:31:19;;;;;;;;;;;20.20;82.20;;;;;;5052872;28;19931;-70
2023/05/01 12:34:01;;;;;;;;;;;20.10;83.20;;;;;;5054821;28;19925;-70
2023/05/01 12:36:28;;;;;;;;;;;20.00;83.70;;;;;;5064807;28;20388;-70
2023/05/01 12:38:57;;;;;;;;;;;20.10;82.30;;;;;;5076422;28;20424;-70
2023/05/01 12:41:34;;;;;;;;;;;19.90;83.00;;;;;;5057299;28;19932;-69
2023/05/01 12:44:00;;;;;;;;;;;19.90;83.00;;;;;;5042315;28;19956;-70
2023/05/01 12:46:25;;;;;;;;;;;19.60;83.60;;;;;;5058730;28;20309;-70
2023/05/01 12:48:51;;;;;;;;;;;19.50;84.30;;;;;;5076768;28;19925;-69
2023/05/01 12:51:20;;;;;;;;;;;19.50;83.90;;;;;;5076246;28;20015;-69
2023/05/01 12:53:45;;;;;;;;;;;19.30;83.80;;;;;;5075734;28;19928;-69
2023/05/01 12:56:23;;;;;;;;;;;19.20;87.00;;;;;;5075417;28;20001;-70
2023/05/01 12:58:50;;;;;;;;;;;19.20;85.60;;;;;;5073444;28;19924;-69
2023/05/01 13:01:26;;;;;;;;;;;19.30;85.70;;;;;;5055064;28;20358;-69
2023/05/01 13:03:52;;;;;;;;;;;19.40;86.00;;;;;;5065483;28;19925;-70
2023/05/01 13:06:17;;;;;;;;;;;19.40;85.80;;;;;;5056414;28;19924;-69
2023/05/01 13:08:43;;;;;;;;;;;19.40;85.60;;;;;;5055221;28;19924;-69
2023/05/01 13:11:10;;;;;;;;;;;19.50;85.90;;;;;;5075007;28;19928;-70
2023/05/01 13:13:36;;;;;;;;;;;19.50;84.50;;;;;;5075892;28;19931;-70
2023/05/01 13:16:20;;;;;;;;;;;19.20;85.30;;;;;;5076742;28;20336;-70
2023/05/01 13:18:51;;;;;;;;;;;19.20;85.60;;;;;;5071272;28;19925;-69
2023/05/01 13:21:21;;;;;;;;;;;19.20;86.60;;;;;;5076254;28;19927;-71
2023/05/01 13:24:05;;;;;;;;;;;19.00;87.20;;;;;;5076942;28;19924;-69
2023/05/01 13:26:31;;;;;;;;;;;19.00;86.30;;;;;;5076682;28;20106;-70
2023/05/01 13:28:58;;;;;;;;;;;18.80;86.20;;;;;;5060165;28;20378;-70
2023/05/01 13:31:24;;;;;;;;;;;18.70;89.30;;;;;;5057351;28;19978;-70
2023/05/01 13:33:50;;;;;;;;;;;18.60;90.40;;;;;;5057916;28;19928;-70
2023/05/01 13:36:16;;;;;;;;;;;18.70;90.80;;;;;;5049946;28;19981;-69
2023/05/01 13:38:44;;;;;;;;;;;18.70;91.30;;;;;;5078045;28;19932;-70
2023/05/01 13:41:18;;;;;;;;;;;18.80;91.70;;;;;;5076805;28;19924;-69
2023/05/01 13:43:44;;;;;;;;;;;18.90;91.50;;;;;;5061314;28;19929;-70
2023/05/01 13:46:12;;;;;;;;;;;18.90;90.80;;;;;;5057272;28;19925;-69
2023/05/01 13:48:41;;;;;;;;;;;18.80;91.10;;;;;;5077726;28;19924;-69
2023/05/01 13:51:08;;;;;;;;;;;18.70;90.70;;;;;;5058387;28;19925;-70
2023/05/01 13:53:33;;;;;;;;;;;18.40;90.90;;;;;;5076871;28;19925;-69
2023/05/01 13:55:59;;;;;;;;;;;18.20;91.10;;;;;;5079893;28;19986;-70
2023/05/01 13:58:27;;;;;;;;;;;18.10;92.00;;;;;;5064865;28;19954;-69
2023/05/01 14:00:53;;;;;;;;;;;18.10;91.20;;;;;;5059454;28;19925;-70
2023/05/01 14:03:19;;;;;;;;;;;18.10;91.10;;;;;;5058908;28;19932;-70
2023/05/01 14:05:45;;;;;;;;;;;17.90;91.20;;;;;;5058892;28;19978;-70
2023/05/01 14:08:11;;;;;;;;;;;17.70;91.60;;;;;;5070452;28;19925;-70
2023/05/01 14:10:37;;;;;;;;;;;17.60;91.60;;;;;;5061306;28;19924;-70
2023/05/01 14:13:04;;;;;;;;;;;17.60;91.40;;;;;;5078471;28;19932;-70
2023/05/01 14:15:30;;;;;;;;;;;17.50;91.80;;;;;;5077390;28;20015;-71
2023/05/01 14:17:57;;;;;;;;;;;17.50;92.00;;;;;;5079589;28;20023;-70
2023/05/01 14:20:26;;;;;;;;;;;17.50;91.70;;;;;;5060971;28;19932;-70
2023/05/01 14:22:52;;;;;;;;;;;17.50;92.20;;;;;;5077852;28;19947;-70